Aviation Digital Data Service (ADDS)

Output produced by METARs form (0054 UTC 24 May 2022)
found at http://www.aviationweather.gov/metar/data/
 
TAF SPHY 231705Z 2318/2418 35010KT 9999 FEW010 TX18/2319Z TNM01/2411Z 
     BECMG 2321/2323 00000KT
       
TAF SPQU 232300Z 2400/2424 04006KT CAVOK TX21/2419Z TN06/2410Z 
     FM241430 24008KT CAVOK
       
TAF SPHO 231705Z 2318/2418 07005KT 9999 FEW040 TX23/2319Z TN09/2411Z 
     TEMPO 2318/2321 FEW040TCU SCT060
       
TAF SPJR 231700Z 2318/2418 04007KT 9999 FEW025 SCT050 TX23/2320Z TN06/2411Z 
     TEMPO 2320/2322 8000 RA FEW023 BKN046 
     FM232330 00000KT CAVOK
       
TAF SPPY 231700Z 2318/2418 36006KT 9999 SCT020 SCT050 TX22/2320Z TN18/2411Z 
     TEMPO 2323/2403 34012KT 4000 DZRA BKN010 BKN050 
     TEMPO 2410/2414 2000 BCFG BKN010 BKN080
       
TAF SPHI 231710Z 2318/2418 19016KT CAVOK TX25/2319Z TN17/2411Z 
     BECMG 2319/2321 14022KT 
     BECMG 2402/2405 24012KT 9999 SCT020
       
TAF SPEO 231710Z 2318/2418 20010KT 9999 SCT015 TX21/2319Z TN15/2411Z 
     PROB40 2321/2401 FEW005 
     BECMG 2401/2403 25012KT 8000 OVC010
       
TAF SPZO 232300Z 2400/2424 33010KT 9999 NSC TX20/2419Z TN01/2411Z 
     BECMG 2401/2403 09002KT 
     BECMG 2417/2419 33010KT
       
TAF SPNC 231700Z 2318/2418 06017KT 9999 FEW040 SCT110 TX28/2319Z TN15/2411Z 
     TEMPO 2320/2322 FEW040 BKN100 
     BECMG 2323/2401 VRB03KT
       
TAF SPLO 232300Z 2400/2424 14007KT 9999 OVC025 TX22/2419Z TN16/2410Z 
     FM241630 16010KT 9999 SCT030 
     FM242330 14006KT 8000 BKN022
       
TAF SPQT 232300Z 2400/2424 VRB02KT 9999 SCT020 BKN080 TX32/2420Z TN23/2411Z 
     TEMPO 2401/2404 02012KT 3000 SHRA BKN010 FEW025CB BKN080 
     TEMPO 2408/2412 1000 BCFG BKN002 BKN080 
     TEMPO 2419/2423 36012KT 3000 SHRA BKN010 FEW025CB BKN080
       
TAF SPJI 231700Z 2318/2418 12005KT 9999 SCT020 SCT080 TX32/2319Z TN20/2411Z 
     TEMPO 2320/2401 36018KT 4000 SHRA SCT010 FERW025TCU BKN080 
     TEMPO 2410/2413 3000 BCFG SCT010 BKN080
       
TAF SPJL 231700Z 2318/2418 04005KT CAVOK TX16/2319Z TNM05/2411Z
       
TAF SPSO 232300Z 2400/2424 36007KT 5000 BR NSC TX19/2419Z TN14/2411Z 
     BECMG 2400/2402 VRB02KT 3000 BR NSC 
     TEMPO 2411/2413 09005KT 2000 BKN009 
     TEMPO 2414/2415 28005KT 5000 SCT015 
     BECMG 2415/2416 5000 BR NSC
       
TAF SPCL 232300Z 2400/2424 VRB02KT 9999 SCT020 SCT100 TX32/2420Z TN23/2411Z 
     TEMPO 2409/2412 2000 BR BKN005 SCT080 
     TEMPO 2419/2423 02012KT 3000 SHRA BKN010 FEW025TCU
       
TAF SPTU 231705Z 2318/2418 21007KT 9999 SCT015 BKN100 TX29/2320Z TN20/2411Z 
     TEMPO 2318/2320 BKN012
       
TAF SPTN 231700Z 2318/2418 22008KT CAVOK TX20/2319Z TN13/2411Z 
     FM240000 30003KT 7000 SCT015 BKN025 
     FM241530 24008KT CAVOK
       
TAF SPYL 231710Z 2318/2418 15020KT CAVOK TX26/2319Z TN16/2411Z 
     PROB40 2319/2322 SCT040 
     BECMG 2322/2401 20012KT
       
TAF SPST 232300Z 2400/2424 VRB03KT 9999 SCT015 BKN080 TX34/2419Z TN21/2411Z 
     TEMPO 2411/2413 1200 BR BKN004
       
TAF COR SPGM 231900Z 2318/2418 01004KT 9999 SCT020 BKN100 TX30/2319Z TN19/2411Z 
     FM241100 VRB03KT 9999 SCT014 BKN100
       
TAF SPRU 232318Z 2400/2424 15008KT 7000 BCFG NSC TX20/2419Z TN15/2411Z 
     PROB40 2402/2406 5000 BR BKN020 
     BECMG 2412/2414 22012KT 3000 BR OVC005 
     BECMG 2416/2418 17014KT 9000 NSW SCT010
       
TAF SPME 232318Z 2400/2424 28004KT 9999 BKN020 TX29/2419Z TN22/2411Z 
     PROB40 2402/2406 FEW030 
     BECMG 2412/2414 23008KT BKN010 
     TEMPO 2420/2423 05012KT 8000 FEW010 SCT040
       
TAF SPMS 231700Z 2318/2418 02005KT 9999 SCT020 SCT080 TX31/2320Z TN23/2411Z 
     TEMPO 2321/2401 02012KT 4000 SHRA SCT010 FEW025TCU BKN080 
     TEMPO 2410/2413 2000 BR BKN005 BKN080